sensor_id;sensor_type;location;lat;lon;timestamp;P1;durP1;ratioP1;P2;durP2;ratioP2
29120;SDS011;16191;49.548;8.658;2022-09-02T00:03:56;2.53;;;1.95;;
29120;SDS011;16191;49.548;8.658;2022-09-02T00:06:26;8.35;;;2.47;;
29120;SDS011;16191;49.548;8.658;2022-09-02T00:08:53;3.42;;;2.38;;
29120;SDS011;16191;49.548;8.658;2022-09-02T00:11:22;2.55;;;1.90;;
29120;SDS011;16191;49.548;8.658;2022-09-02T00:14:13;2.17;;;1.98;;
29120;SDS011;16191;49.548;8.658;2022-09-02T00:17:05;3.05;;;2.15;;
29120;SDS011;16191;49.548;8.658;2022-09-02T00:19:52;3.03;;;2.20;;
29120;SDS011;16191;49.548;8.658;2022-09-02T00:22:41;4.20;;;2.13;;
29120;SDS011;16191;49.548;8.658;2022-09-02T00:25:28;2.42;;;2.10;;
29120;SDS011;16191;49.548;8.658;2022-09-02T00:28:15;3.90;;;2.13;;
29120;SDS011;16191;49.548;8.658;2022-09-02T00:30:46;2.85;;;1.83;;
29120;SDS011;16191;49.548;8.658;2022-09-02T00:33:14;2.55;;;2.28;;
29120;SDS011;16191;49.548;8.658;2022-09-02T00:35:42;3.50;;;2.30;;
29120;SDS011;16191;49.548;8.658;2022-09-02T00:38:09;5.30;;;1.80;;
29120;SDS011;16191;49.548;8.658;2022-09-02T00:40:36;4.70;;;2.47;;
29120;SDS011;16191;49.548;8.658;2022-09-02T00:43:07;3.47;;;2.33;;
29120;SDS011;16191;49.548;8.658;2022-09-02T00:45:34;2.25;;;1.95;;
29120;SDS011;16191;49.548;8.658;2022-09-02T00:48:01;4.68;;;2.60;;
29120;SDS011;16191;49.548;8.658;2022-09-02T00:50:30;3.90;;;2.10;;
29120;SDS011;16191;49.548;8.658;2022-09-02T00:53:02;5.32;;;2.50;;
29120;SDS011;16191;49.548;8.658;2022-09-02T00:55:35;3.97;;;2.58;;
29120;SDS011;16191;49.548;8.658;2022-09-02T00:58:08;4.50;;;2.50;;
29120;SDS011;16191;49.548;8.658;2022-09-02T01:00:41;4.30;;;2.58;;
29120;SDS011;16191;49.548;8.658;2022-09-02T01:03:11;3.92;;;2.03;;
29120;SDS011;16191;49.548;8.658;2022-09-02T01:05:42;4.43;;;2.42;;
29120;SDS011;16191;49.548;8.658;2022-09-02T01:08:18;4.23;;;2.70;;
29120;SDS011;16191;49.548;8.658;2022-09-02T01:10:51;4.20;;;2.42;;
29120;SDS011;16191;49.548;8.658;2022-09-02T01:13:24;3.38;;;2.20;;
29120;SDS011;16191;49.548;8.658;2022-09-02T01:15:55;2.55;;;2.10;;
29120;SDS011;16191;49.548;8.658;2022-09-02T01:18:36;9.00;;;2.45;;
29120;SDS011;16191;49.548;8.658;2022-09-02T01:21:04;4.45;;;2.08;;
29120;SDS011;16191;49.548;8.658;2022-09-02T01:23:32;2.92;;;2.05;;
29120;SDS011;16191;49.548;8.658;2022-09-02T01:26:01;3.42;;;2.17;;
29120;SDS011;16191;49.548;8.658;2022-09-02T01:28:30;5.13;;;2.20;;
29120;SDS011;16191;49.548;8.658;2022-09-02T01:30:59;3.40;;;2.00;;
29120;SDS011;16191;49.548;8.658;2022-09-02T01:33:26;3.83;;;2.22;;
29120;SDS011;16191;49.548;8.658;2022-09-02T01:35:53;2.95;;;1.92;;
29120;SDS011;16191;49.548;8.658;2022-09-02T01:38:21;2.75;;;1.77;;
29120;SDS011;16191;49.548;8.658;2022-09-02T01:40:49;3.33;;;2.00;;
29120;SDS011;16191;49.548;8.658;2022-09-02T01:43:20;4.35;;;2.00;;
29120;SDS011;16191;49.548;8.658;2022-09-02T01:45:51;2.67;;;1.90;;
29120;SDS011;16191;49.548;8.658;2022-09-02T01:48:21;3.45;;;1.90;;
29120;SDS011;16191;49.548;8.658;2022-09-02T01:50:54;3.42;;;2.15;;
29120;SDS011;16191;49.548;8.658;2022-09-02T01:53:22;2.75;;;2.05;;
29120;SDS011;16191;49.548;8.658;2022-09-02T01:55:51;2.97;;;2.10;;
29120;SDS011;16191;49.548;8.658;2022-09-02T01:58:18;4.28;;;2.35;;
29120;SDS011;16191;49.548;8.658;2022-09-02T02:00:46;3.28;;;2.20;;
29120;SDS011;16191;49.548;8.658;2022-09-02T02:03:13;4.13;;;2.47;;
29120;SDS011;16191;49.548;8.658;2022-09-02T02:05:40;3.42;;;2.08;;
29120;SDS011;16191;49.548;8.658;2022-09-02T02:08:07;2.70;;;2.00;;
29120;SDS011;16191;49.548;8.658;2022-09-02T02:10:34;4.97;;;1.98;;
29120;SDS011;16191;49.548;8.658;2022-09-02T02:13:03;4.10;;;2.40;;
29120;SDS011;16191;49.548;8.658;2022-09-02T02:15:32;2.40;;;1.98;;
29120;SDS011;16191;49.548;8.658;2022-09-02T02:18:03;3.45;;;1.90;;
29120;SDS011;16191;49.548;8.658;2022-09-02T02:20:30;3.42;;;2.05;;
29120;SDS011;16191;49.548;8.658;2022-09-02T02:22:57;2.42;;;2.00;;
29120;SDS011;16191;49.548;8.658;2022-09-02T02:25:24;2.63;;;2.25;;
29120;SDS011;16191;49.548;8.658;2022-09-02T02:27:52;3.70;;;2.33;;
29120;SDS011;16191;49.548;8.658;2022-09-02T02:30:21;3.15;;;2.08;;
29120;SDS011;16191;49.548;8.658;2022-09-02T02:32:49;3.20;;;2.13;;
29120;SDS011;16191;49.548;8.658;2022-09-02T02:35:18;7.20;;;1.83;;
29120;SDS011;16191;49.548;8.658;2022-09-02T02:37:46;6.43;;;2.30;;
29120;SDS011;16191;49.548;8.658;2022-09-02T02:40:16;3.88;;;2.00;;
29120;SDS011;16191;49.548;8.658;2022-09-02T02:42:47;4.57;;;2.47;;
29120;SDS011;16191;49.548;8.658;2022-09-02T02:45:14;4.35;;;2.38;;
29120;SDS011;16191;49.548;8.658;2022-09-02T02:47:42;4.45;;;2.08;;
29120;SDS011;16191;49.548;8.658;2022-09-02T02:50:13;2.60;;;1.73;;
29120;SDS011;16191;49.548;8.658;2022-09-02T02:52:41;8.88;;;2.13;;
29120;SDS011;16191;49.548;8.658;2022-09-02T02:55:09;5.03;;;2.10;;
29120;SDS011;16191;49.548;8.658;2022-09-02T02:57:39;2.45;;;1.70;;
29120;SDS011;16191;49.548;8.658;2022-09-02T03:02:37;4.22;;;1.80;;
29120;SDS011;16191;49.548;8.658;2022-09-02T03:05:05;1.95;;;1.55;;
29120;SDS011;16191;49.548;8.658;2022-09-02T03:07:33;2.55;;;1.60;;
29120;SDS011;16191;49.548;8.658;2022-09-02T03:10:04;2.42;;;1.83;;
29120;SDS011;16191;49.548;8.658;2022-09-02T03:12:36;2.67;;;1.40;;
29120;SDS011;16191;49.548;8.658;2022-09-02T03:15:06;2.58;;;1.48;;
29120;SDS011;16191;49.548;8.658;2022-09-02T03:17:34;3.75;;;1.75;;
29120;SDS011;16191;49.548;8.658;2022-09-02T03:20:01;3.17;;;1.50;;
29120;SDS011;16191;49.548;8.658;2022-09-02T03:22:32;4.63;;;1.80;;
29120;SDS011;16191;49.548;8.658;2022-09-02T03:25:02;4.25;;;1.63;;
29120;SDS011;16191;49.548;8.658;2022-09-02T03:27:29;3.25;;;1.63;;
29120;SDS011;16191;49.548;8.658;2022-09-02T03:29:56;4.97;;;1.50;;
29120;SDS011;16191;49.548;8.658;2022-09-02T03:32:23;1.90;;;1.50;;
29120;SDS011;16191;49.548;8.658;2022-09-02T03:34:56;3.35;;;1.40;;
29120;SDS011;16191;49.548;8.658;2022-09-02T03:37:24;1.98;;;1.70;;
29120;SDS011;16191;49.548;8.658;2022-09-02T03:39:50;3.08;;;1.70;;
29120;SDS011;16191;49.548;8.658;2022-09-02T03:42:17;6.53;;;2.03;;
29120;SDS011;16191;49.548;8.658;2022-09-02T03:44:47;5.00;;;1.55;;
29120;SDS011;16191;49.548;8.658;2022-09-02T03:47:14;4.50;;;1.50;;
29120;SDS011;16191;49.548;8.658;2022-09-02T03:49:46;2.20;;;1.45;;
29120;SDS011;16191;49.548;8.658;2022-09-02T03:52:13;1.67;;;1.50;;
29120;SDS011;16191;49.548;8.658;2022-09-02T03:54:40;2.70;;;1.80;;
29120;SDS011;16191;49.548;8.658;2022-09-02T03:57:06;3.22;;;1.90;;
29120;SDS011;16191;49.548;8.658;2022-09-02T03:59:34;7.75;;;1.80;;
29120;SDS011;16191;49.548;8.658;2022-09-02T04:02:00;4.57;;;1.92;;
29120;SDS011;16191;49.548;8.658;2022-09-02T04:04:28;2.55;;;1.60;;
29120;SDS011;16191;49.548;8.658;2022-09-02T04:06:55;2.72;;;1.80;;
29120;SDS011;16191;49.548;8.658;2022-09-02T04:09:24;3.75;;;1.63;;
29120;SDS011;16191;49.548;8.658;2022-09-02T04:11:51;3.22;;;1.85;;
29120;SDS011;16191;49.548;8.658;2022-09-02T04:14:18;1.40;;;1.30;;
29120;SDS011;16191;49.548;8.658;2022-09-02T04:16:45;2.90;;;1.77;;
29120;SDS011;16191;49.548;8.658;2022-09-02T04:19:12;3.58;;;1.63;;
29120;SDS011;16191;49.548;8.658;2022-09-02T04:21:40;5.25;;;1.80;;
29120;SDS011;16191;49.548;8.658;2022-09-02T04:24:08;2.90;;;1.70;;
29120;SDS011;16191;49.548;8.658;2022-09-02T04:26:39;3.00;;;1.70;;
29120;SDS011;16191;49.548;8.658;2022-09-02T04:29:12;1.95;;;1.55;;
29120;SDS011;16191;49.548;8.658;2022-09-02T04:31:40;2.45;;;1.60;;
29120;SDS011;16191;49.548;8.658;2022-09-02T04:34:08;2.78;;;1.80;;
29120;SDS011;16191;49.548;8.658;2022-09-02T04:36:35;4.78;;;1.50;;
29120;SDS011;16191;49.548;8.658;2022-09-02T04:39:06;4.47;;;1.80;;
29120;SDS011;16191;49.548;8.658;2022-09-02T04:41:34;4.70;;;2.10;;
29120;SDS011;16191;49.548;8.658;2022-09-02T04:44:06;6.85;;;1.70;;
29120;SDS011;16191;49.548;8.658;2022-09-02T04:46:36;2.33;;;1.58;;
29120;SDS011;16191;49.548;8.658;2022-09-02T04:51:35;2.95;;;1.75;;
29120;SDS011;16191;49.548;8.658;2022-09-02T04:54:03;2.33;;;1.48;;
29120;SDS011;16191;49.548;8.658;2022-09-02T04:56:31;2.05;;;1.50;;
29120;SDS011;16191;49.548;8.658;2022-09-02T04:59:00;2.60;;;1.40;;
29120;SDS011;16191;49.548;8.658;2022-09-02T05:01:29;1.98;;;1.52;;
29120;SDS011;16191;49.548;8.658;2022-09-02T05:04:06;4.10;;;1.80;;
29120;SDS011;16191;49.548;8.658;2022-09-02T05:06:39;4.68;;;1.88;;
29120;SDS011;16191;49.548;8.658;2022-09-02T05:09:13;6.70;;;1.50;;
29120;SDS011;16191;49.548;8.658;2022-09-02T05:11:40;5.05;;;1.70;;
29120;SDS011;16191;49.548;8.658;2022-09-02T05:14:07;4.50;;;1.40;;
29120;SDS011;16191;49.548;8.658;2022-09-02T05:16:37;2.85;;;1.50;;
29120;SDS011;16191;49.548;8.658;2022-09-02T05:19:09;7.55;;;1.50;;
29120;SDS011;16191;49.548;8.658;2022-09-02T05:21:42;3.35;;;1.33;;
29120;SDS011;16191;49.548;8.658;2022-09-02T05:24:15;8.63;;;1.90;;
29120;SDS011;16191;49.548;8.658;2022-09-02T05:26:43;10.90;;;2.22;;
29120;SDS011;16191;49.548;8.658;2022-09-02T05:29:11;11.82;;;1.98;;
29120;SDS011;16191;49.548;8.658;2022-09-02T05:31:40;4.00;;;1.77;;
29120;SDS011;16191;49.548;8.658;2022-09-02T05:34:11;5.63;;;1.88;;
29120;SDS011;16191;49.548;8.658;2022-09-02T05:36:38;10.93;;;2.30;;
29120;SDS011;16191;49.548;8.658;2022-09-02T05:39:05;5.50;;;2.10;;
29120;SDS011;16191;49.548;8.658;2022-09-02T05:41:33;3.92;;;1.50;;
29120;SDS011;16191;49.548;8.658;2022-09-02T05:44:02;4.50;;;1.60;;
29120;SDS011;16191;49.548;8.658;2022-09-02T05:46:31;3.13;;;1.33;;
29120;SDS011;16191;49.548;8.658;2022-09-02T05:48:59;2.90;;;1.38;;
29120;SDS011;16191;49.548;8.658;2022-09-02T05:51:45;3.15;;;1.30;;
29120;SDS011;16191;49.548;8.658;2022-09-02T05:54:20;8.00;;;1.65;;
29120;SDS011;16191;49.548;8.658;2022-09-02T05:56:52;6.68;;;1.48;;
29120;SDS011;16191;49.548;8.658;2022-09-02T05:59:21;6.40;;;1.42;;
29120;SDS011;16191;49.548;8.658;2022-09-02T06:01:50;8.10;;;1.75;;
29120;SDS011;16191;49.548;8.658;2022-09-02T06:04:18;5.72;;;1.45;;
29120;SDS011;16191;49.548;8.658;2022-09-02T06:06:46;3.22;;;1.13;;
29120;SDS011;16191;49.548;8.658;2022-09-02T06:09:15;4.75;;;1.10;;
29120;SDS011;16191;49.548;8.658;2022-09-02T06:11:46;2.50;;;1.20;;
29120;SDS011;16191;49.548;8.658;2022-09-02T06:14:21;3.17;;;1.10;;
29120;SDS011;16191;49.548;8.658;2022-09-02T06:16:52;2.92;;;1.05;;
29120;SDS011;16191;49.548;8.658;2022-09-02T06:19:27;3.85;;;1.10;;
29120;SDS011;16191;49.548;8.658;2022-09-02T06:22:00;4.10;;;1.20;;
29120;SDS011;16191;49.548;8.658;2022-09-02T06:24:28;3.17;;;1.37;;
29120;SDS011;16191;49.548;8.658;2022-09-02T06:27:00;3.03;;;1.40;;
29120;SDS011;16191;49.548;8.658;2022-09-02T06:29:27;1.33;;;0.95;;
29120;SDS011;16191;49.548;8.658;2022-09-02T06:31:55;6.30;;;1.63;;
29120;SDS011;16191;49.548;8.658;2022-09-02T06:34:23;5.75;;;1.20;;
29120;SDS011;16191;49.548;8.658;2022-09-02T06:36:53;3.55;;;1.25;;
29120;SDS011;16191;49.548;8.658;2022-09-02T06:39:21;4.78;;;1.60;;
29120;SDS011;16191;49.548;8.658;2022-09-02T06:41:49;9.23;;;2.35;;
29120;SDS011;16191;49.548;8.658;2022-09-02T06:44:18;2.78;;;1.17;;
29120;SDS011;16191;49.548;8.658;2022-09-02T06:46:52;7.57;;;1.30;;
29120;SDS011;16191;49.548;8.658;2022-09-02T06:49:23;7.53;;;1.05;;
29120;SDS011;16191;49.548;8.658;2022-09-02T06:51:52;3.40;;;1.20;;
29120;SDS011;16191;49.548;8.658;2022-09-02T06:54:27;1.58;;;1.23;;
29120;SDS011;16191;49.548;8.658;2022-09-02T06:57:04;3.38;;;1.17;;
29120;SDS011;16191;49.548;8.658;2022-09-02T06:59:33;3.15;;;1.00;;
29120;SDS011;16191;49.548;8.658;2022-09-02T07:02:01;1.70;;;1.20;;
29120;SDS011;16191;49.548;8.658;2022-09-02T07:04:30;1.80;;;1.25;;
29120;SDS011;16191;49.548;8.658;2022-09-02T07:07:21;2.20;;;1.20;;
29120;SDS011;16191;49.548;8.658;2022-09-02T07:09:59;4.50;;;1.30;;
29120;SDS011;16191;49.548;8.658;2022-09-02T07:12:26;2.33;;;1.10;;
29120;SDS011;16191;49.548;8.658;2022-09-02T07:15:01;3.78;;;1.15;;
29120;SDS011;16191;49.548;8.658;2022-09-02T07:17:36;2.45;;;1.20;;
29120;SDS011;16191;49.548;8.658;2022-09-02T07:20:07;3.67;;;1.13;;
29120;SDS011;16191;49.548;8.658;2022-09-02T07:22:40;1.70;;;1.27;;
29120;SDS011;16191;49.548;8.658;2022-09-02T07:25:08;2.83;;;1.00;;
29120;SDS011;16191;49.548;8.658;2022-09-02T07:27:36;1.88;;;1.33;;
29120;SDS011;16191;49.548;8.658;2022-09-02T07:30:04;2.15;;;1.33;;
29120;SDS011;16191;49.548;8.658;2022-09-02T07:32:35;4.88;;;1.20;;
29120;SDS011;16191;49.548;8.658;2022-09-02T07:35:04;2.95;;;1.10;;
29120;SDS011;16191;49.548;8.658;2022-09-02T07:37:33;5.20;;;1.10;;
29120;SDS011;16191;49.548;8.658;2022-09-02T07:40:02;3.35;;;1.15;;
29120;SDS011;16191;49.548;8.658;2022-09-02T07:42:30;8.35;;;1.20;;
29120;SDS011;16191;49.548;8.658;2022-09-02T07:44:58;2.45;;;1.30;;
29120;SDS011;16191;49.548;8.658;2022-09-02T07:47:26;1.55;;;1.08;;
29120;SDS011;16191;49.548;8.658;2022-09-02T07:49:52;1.20;;;1.00;;
29120;SDS011;16191;49.548;8.658;2022-09-02T07:52:39;5.25;;;1.50;;
29120;SDS011;16191;49.548;8.658;2022-09-02T07:55:09;2.33;;;1.15;;
29120;SDS011;16191;49.548;8.658;2022-09-02T07:57:41;3.63;;;1.00;;
29120;SDS011;16191;49.548;8.658;2022-09-02T08:00:09;2.20;;;1.20;;
29120;SDS011;16191;49.548;8.658;2022-09-02T08:02:40;3.28;;;1.30;;
29120;SDS011;16191;49.548;8.658;2022-09-02T08:05:10;1.58;;;0.93;;
29120;SDS011;16191;49.548;8.658;2022-09-02T08:07:37;3.80;;;1.08;;
29120;SDS011;16191;49.548;8.658;2022-09-02T08:10:05;4.25;;;1.10;;
29120;SDS011;16191;49.548;8.658;2022-09-02T08:12:36;1.83;;;1.00;;
29120;SDS011;16191;49.548;8.658;2022-09-02T08:15:03;1.73;;;0.90;;
29120;SDS011;16191;49.548;8.658;2022-09-02T08:17:31;3.70;;;0.93;;
29120;SDS011;16191;49.548;8.658;2022-09-02T08:19:58;2.67;;;1.02;;
29120;SDS011;16191;49.548;8.658;2022-09-02T08:22:24;1.90;;;1.15;;
29120;SDS011;16191;49.548;8.658;2022-09-02T08:24:52;1.88;;;1.10;;
29120;SDS011;16191;49.548;8.658;2022-09-02T08:27:19;1.50;;;1.00;;
29120;SDS011;16191;49.548;8.658;2022-09-02T08:29:46;3.00;;;1.10;;
29120;SDS011;16191;49.548;8.658;2022-09-02T08:32:12;1.67;;;0.90;;
29120;SDS011;16191;49.548;8.658;2022-09-02T08:34:39;3.75;;;0.80;;
29120;SDS011;16191;49.548;8.658;2022-09-02T08:37:06;2.42;;;1.02;;
29120;SDS011;16191;49.548;8.658;2022-09-02T08:39:33;2.78;;;1.10;;
29120;SDS011;16191;49.548;8.658;2022-09-02T08:44:45;3.92;;;1.10;;
29120;SDS011;16191;49.548;8.658;2022-09-02T08:47:15;3.72;;;1.10;;
29120;SDS011;16191;49.548;8.658;2022-09-02T08:49:47;2.05;;;1.00;;
29120;SDS011;16191;49.548;8.658;2022-09-02T08:52:19;6.13;;;1.10;;
29120;SDS011;16191;49.548;8.658;2022-09-02T08:54:54;1.77;;;0.98;;
29120;SDS011;16191;49.548;8.658;2022-09-02T08:57:25;2.88;;;1.02;;
29120;SDS011;16191;49.548;8.658;2022-09-02T08:59:54;1.50;;;0.88;;
29120;SDS011;16191;49.548;8.658;2022-09-02T09:02:26;1.88;;;1.05;;
29120;SDS011;16191;49.548;8.658;2022-09-02T09:07:37;6.70;;;0.80;;
29120;SDS011;16191;49.548;8.658;2022-09-02T09:18:38;2.45;;;1.00;;
29120;SDS011;16191;49.548;8.658;2022-09-02T09:21:07;3.83;;;1.38;;
29120;SDS011;16191;49.548;8.658;2022-09-02T09:23:39;2.60;;;0.90;;
29120;SDS011;16191;49.548;8.658;2022-09-02T09:26:08;2.28;;;0.90;;
29120;SDS011;16191;49.548;8.658;2022-09-02T09:31:11;3.88;;;0.95;;
29120;SDS011;16191;49.548;8.658;2022-09-02T09:33:57;4.50;;;0.82;;
29120;SDS011;16191;49.548;8.658;2022-09-02T09:36:41;1.42;;;0.90;;
29120;SDS011;16191;49.548;8.658;2022-09-02T09:42:00;6.10;;;0.77;;
29120;SDS011;16191;49.548;8.658;2022-09-02T09:47:22;1.55;;;0.80;;
29120;SDS011;16191;49.548;8.658;2022-09-02T09:49:52;2.42;;;1.08;;
29120;SDS011;16191;49.548;8.658;2022-09-02T09:52:34;1.33;;;0.88;;
29120;SDS011;16191;49.548;8.658;2022-09-02T09:57:39;2.92;;;0.80;;
29120;SDS011;16191;49.548;8.658;2022-09-02T10:02:48;4.30;;;0.93;;
29120;SDS011;16191;49.548;8.658;2022-09-02T10:07:57;2.67;;;1.38;;
29120;SDS011;16191;49.548;8.658;2022-09-02T10:10:54;2.03;;;0.93;;
29120;SDS011;16191;49.548;8.658;2022-09-02T10:13:32;2.08;;;0.75;;
29120;SDS011;16191;49.548;8.658;2022-09-02T10:27:19;0.85;;;0.70;;
29120;SDS011;16191;49.548;8.658;2022-09-02T10:30:07;2.88;;;0.65;;
29120;SDS011;16191;49.548;8.658;2022-09-02T10:40:57;1.02;;;0.60;;
29120;SDS011;16191;49.548;8.658;2022-09-02T10:43:53;2.80;;;1.00;;
29120;SDS011;16191;49.548;8.658;2022-09-02T10:46:33;2.88;;;1.02;;
29120;SDS011;16191;49.548;8.658;2022-09-02T10:57:47;2.38;;;1.05;;
29120;SDS011;16191;49.548;8.658;2022-09-02T11:00:19;1.50;;;0.80;;
29120;SDS011;16191;49.548;8.658;2022-09-02T11:05:40;4.72;;;0.60;;
29120;SDS011;16191;49.548;8.658;2022-09-02T11:11:32;2.65;;;0.88;;
29120;SDS011;16191;49.548;8.658;2022-09-02T11:17:08;2.22;;;0.93;;
29120;SDS011;16191;49.548;8.658;2022-09-02T11:22:59;2.88;;;0.73;;
29120;SDS011;16191;49.548;8.658;2022-09-02T11:25:40;3.45;;;0.85;;
29120;SDS011;16191;49.548;8.658;2022-09-02T11:30:48;4.53;;;0.80;;
29120;SDS011;16191;49.548;8.658;2022-09-02T11:33:27;4.45;;;0.70;;
29120;SDS011;16191;49.548;8.658;2022-09-02T11:35:59;1.75;;;0.80;;
29120;SDS011;16191;49.548;8.658;2022-09-02T11:38:39;4.55;;;0.90;;
29120;SDS011;16191;49.548;8.658;2022-09-02T11:46:59;1.15;;;0.63;;
29120;SDS011;16191;49.548;8.658;2022-09-02T11:55:29;1.30;;;0.75;;
29120;SDS011;16191;49.548;8.658;2022-09-02T11:57:59;5.65;;;1.13;;
29120;SDS011;16191;49.548;8.658;2022-09-02T12:00:30;3.70;;;1.90;;
29120;SDS011;16191;49.548;8.658;2022-09-02T12:03:19;3.25;;;0.70;;
29120;SDS011;16191;49.548;8.658;2022-09-02T12:06:10;0.90;;;0.77;;
29120;SDS011;16191;49.548;8.658;2022-09-02T12:11:06;4.15;;;0.80;;
29120;SDS011;16191;49.548;8.658;2022-09-02T12:13:37;1.75;;;0.60;;
29120;SDS011;16191;49.548;8.658;2022-09-02T12:21:24;2.80;;;0.63;;
29120;SDS011;16191;49.548;8.658;2022-09-02T12:28:51;2.95;;;0.60;;
29120;SDS011;16191;49.548;8.658;2022-09-02T12:33:51;1.73;;;0.80;;
29120;SDS011;16191;49.548;8.658;2022-09-02T12:44:53;5.22;;;0.82;;
29120;SDS011;16191;49.548;8.658;2022-09-02T12:49:52;4.82;;;0.52;;
29120;SDS011;16191;49.548;8.658;2022-09-02T12:55:06;3.75;;;0.70;;
29120;SDS011;16191;49.548;8.658;2022-09-02T12:57:44;1.33;;;0.70;;
29120;SDS011;16191;49.548;8.658;2022-09-02T13:00:14;4.25;;;0.70;;
29120;SDS011;16191;49.548;8.658;2022-09-02T13:14:26;6.80;;;1.05;;
29120;SDS011;16191;49.548;8.658;2022-09-02T13:32:20;4.10;;;0.90;;
29120;SDS011;16191;49.548;8.658;2022-09-02T13:34:50;5.15;;;0.70;;
29120;SDS011;16191;49.548;8.658;2022-09-02T13:37:27;3.13;;;0.77;;
29120;SDS011;16191;49.548;8.658;2022-09-02T13:39:54;5.18;;;0.70;;
29120;SDS011;16191;49.548;8.658;2022-09-02T13:42:25;6.30;;;0.50;;
29120;SDS011;16191;49.548;8.658;2022-09-02T13:45:11;3.92;;;0.80;;
29120;SDS011;16191;49.548;8.658;2022-09-02T13:47:42;2.33;;;0.85;;
29120;SDS011;16191;49.548;8.658;2022-09-02T13:50:12;1.00;;;0.60;;
29120;SDS011;16191;49.548;8.658;2022-09-02T13:52:41;4.90;;;0.70;;
29120;SDS011;16191;49.548;8.658;2022-09-02T13:55:31;1.80;;;0.43;;
29120;SDS011;16191;49.548;8.658;2022-09-02T13:58:05;4.85;;;0.50;;
29120;SDS011;16191;49.548;8.658;2022-09-02T14:00:45;2.92;;;0.50;;
29120;SDS011;16191;49.548;8.658;2022-09-02T14:03:15;5.82;;;0.70;;
29120;SDS011;16191;49.548;8.658;2022-09-02T14:05:44;2.22;;;0.60;;
29120;SDS011;16191;49.548;8.658;2022-09-02T14:08:24;3.25;;;0.80;;
29120;SDS011;16191;49.548;8.658;2022-09-02T14:10:55;7.03;;;0.80;;
29120;SDS011;16191;49.548;8.658;2022-09-02T14:13:23;5.10;;;0.77;;
29120;SDS011;16191;49.548;8.658;2022-09-02T14:15:52;0.82;;;0.50;;
29120;SDS011;16191;49.548;8.658;2022-09-02T14:18:20;0.98;;;0.50;;
29120;SDS011;16191;49.548;8.658;2022-09-02T14:20:52;15.90;;;1.25;;
29120;SDS011;16191;49.548;8.658;2022-09-02T14:23:26;13.82;;;0.95;;
29120;SDS011;16191;49.548;8.658;2022-09-02T14:25:58;6.95;;;0.88;;
29120;SDS011;16191;49.548;8.658;2022-09-02T14:28:30;8.98;;;0.75;;
29120;SDS011;16191;49.548;8.658;2022-09-02T14:31:00;6.85;;;0.80;;
29120;SDS011;16191;49.548;8.658;2022-09-02T14:33:40;1.90;;;0.90;;
29120;SDS011;16191;49.548;8.658;2022-09-02T14:43:47;1.05;;;0.60;;
29120;SDS011;16191;49.548;8.658;2022-09-02T14:46:31;1.10;;;0.50;;
29120;SDS011;16191;49.548;8.658;2022-09-02T14:51:38;2.40;;;0.70;;
29120;SDS011;16191;49.548;8.658;2022-09-02T14:54:32;2.70;;;0.90;;
29120;SDS011;16191;49.548;8.658;2022-09-02T14:57:00;3.30;;;0.50;;
29120;SDS011;16191;49.548;8.658;2022-09-02T14:59:27;3.92;;;0.93;;
29120;SDS011;16191;49.548;8.658;2022-09-02T15:01:55;0.70;;;0.45;;
29120;SDS011;16191;49.548;8.658;2022-09-02T15:04:24;1.02;;;0.60;;
29120;SDS011;16191;49.548;8.658;2022-09-02T15:06:51;7.22;;;0.93;;
29120;SDS011;16191;49.548;8.658;2022-09-02T15:09:17;4.00;;;0.65;;
29120;SDS011;16191;49.548;8.658;2022-09-02T15:11:47;1.08;;;0.70;;
29120;SDS011;16191;49.548;8.658;2022-09-02T15:14:16;1.52;;;0.70;;
29120;SDS011;16191;49.548;8.658;2022-09-02T15:16:43;1.40;;;0.68;;
29120;SDS011;16191;49.548;8.658;2022-09-02T15:19:10;1.85;;;0.60;;
29120;SDS011;16191;49.548;8.658;2022-09-02T15:21:37;1.38;;;0.93;;
29120;SDS011;16191;49.548;8.658;2022-09-02T15:24:04;5.07;;;0.57;;
29120;SDS011;16191;49.548;8.658;2022-09-02T15:26:30;1.77;;;0.70;;
29120;SDS011;16191;49.548;8.658;2022-09-02T15:28:57;3.60;;;0.57;;
29120;SDS011;16191;49.548;8.658;2022-09-02T15:31:23;3.65;;;0.63;;
29120;SDS011;16191;49.548;8.658;2022-09-02T15:33:51;2.40;;;0.65;;
29120;SDS011;16191;49.548;8.658;2022-09-02T15:36:18;3.33;;;0.70;;
29120;SDS011;16191;49.548;8.658;2022-09-02T15:38:44;2.70;;;0.70;;
29120;SDS011;16191;49.548;8.658;2022-09-02T15:43:52;1.30;;;0.50;;
29120;SDS011;16191;49.548;8.658;2022-09-02T15:46:23;3.63;;;0.70;;
29120;SDS011;16191;49.548;8.658;2022-09-02T15:48:55;2.63;;;0.52;;
29120;SDS011;16191;49.548;8.658;2022-09-02T15:51:28;7.93;;;0.65;;
29120;SDS011;16191;49.548;8.658;2022-09-02T15:53:56;1.77;;;0.70;;
29120;SDS011;16191;49.548;8.658;2022-09-02T15:56:24;3.00;;;0.65;;
29120;SDS011;16191;49.548;8.658;2022-09-02T15:59:00;4.30;;;0.63;;
29120;SDS011;16191;49.548;8.658;2022-09-02T16:01:34;3.33;;;0.85;;
29120;SDS011;16191;49.548;8.658;2022-09-02T16:04:04;3.47;;;0.70;;
29120;SDS011;16191;49.548;8.658;2022-09-02T16:06:31;3.05;;;0.70;;
29120;SDS011;16191;49.548;8.658;2022-09-02T16:09:00;1.75;;;0.55;;
29120;SDS011;16191;49.548;8.658;2022-09-02T16:11:28;2.15;;;0.70;;
29120;SDS011;16191;49.548;8.658;2022-09-02T16:13:54;1.67;;;0.60;;
29120;SDS011;16191;49.548;8.658;2022-09-02T16:16:21;2.17;;;0.50;;
29120;SDS011;16191;49.548;8.658;2022-09-02T16:18:52;1.40;;;0.60;;
29120;SDS011;16191;49.548;8.658;2022-09-02T16:21:19;1.40;;;0.65;;
29120;SDS011;16191;49.548;8.658;2022-09-02T16:23:48;2.92;;;0.50;;
29120;SDS011;16191;49.548;8.658;2022-09-02T16:26:26;2.08;;;0.95;;
29120;SDS011;16191;49.548;8.658;2022-09-02T16:28:57;5.43;;;0.60;;
29120;SDS011;16191;49.548;8.658;2022-09-02T16:31:26;4.55;;;0.70;;
29120;SDS011;16191;49.548;8.658;2022-09-02T16:36:33;2.90;;;0.70;;
29120;SDS011;16191;49.548;8.658;2022-09-02T16:39:02;1.13;;;0.80;;
29120;SDS011;16191;49.548;8.658;2022-09-02T16:41:37;3.27;;;0.70;;
29120;SDS011;16191;49.548;8.658;2022-09-02T16:44:14;1.15;;;0.65;;
29120;SDS011;16191;49.548;8.658;2022-09-02T16:46:42;2.30;;;0.80;;
29120;SDS011;16191;49.548;8.658;2022-09-02T16:49:11;3.70;;;0.70;;
29120;SDS011;16191;49.548;8.658;2022-09-02T16:51:40;2.17;;;0.68;;
29120;SDS011;16191;49.548;8.658;2022-09-02T16:54:07;2.00;;;0.70;;
29120;SDS011;16191;49.548;8.658;2022-09-02T16:56:44;0.95;;;0.70;;
29120;SDS011;16191;49.548;8.658;2022-09-02T16:59:11;3.95;;;0.60;;
29120;SDS011;16191;49.548;8.658;2022-09-02T17:01:38;3.63;;;0.50;;
29120;SDS011;16191;49.548;8.658;2022-09-02T17:04:05;6.82;;;0.80;;
29120;SDS011;16191;49.548;8.658;2022-09-02T17:06:34;2.60;;;0.70;;
29120;SDS011;16191;49.548;8.658;2022-09-02T17:09:07;3.70;;;1.00;;
29120;SDS011;16191;49.548;8.658;2022-09-02T17:11:34;5.88;;;0.95;;
29120;SDS011;16191;49.548;8.658;2022-09-02T17:14:08;1.88;;;0.80;;
29120;SDS011;16191;49.548;8.658;2022-09-02T17:16:38;1.42;;;0.68;;
29120;SDS011;16191;49.548;8.658;2022-09-02T17:19:08;3.60;;;0.80;;
29120;SDS011;16191;49.548;8.658;2022-09-02T17:21:43;3.15;;;0.90;;
29120;SDS011;16191;49.548;8.658;2022-09-02T17:24:12;2.00;;;0.75;;
29120;SDS011;16191;49.548;8.658;2022-09-02T17:26:42;2.67;;;0.80;;
29120;SDS011;16191;49.548;8.658;2022-09-02T17:29:13;5.65;;;0.70;;
29120;SDS011;16191;49.548;8.658;2022-09-02T17:32:04;1.90;;;0.57;;
29120;SDS011;16191;49.548;8.658;2022-09-02T17:34:31;5.68;;;1.00;;
29120;SDS011;16191;49.548;8.658;2022-09-02T17:36:59;2.45;;;1.00;;
29120;SDS011;16191;49.548;8.658;2022-09-02T17:39:25;2.22;;;1.00;;
29120;SDS011;16191;49.548;8.658;2022-09-02T17:41:52;2.30;;;1.00;;
29120;SDS011;16191;49.548;8.658;2022-09-02T17:47:00;4.03;;;0.68;;
29120;SDS011;16191;49.548;8.658;2022-09-02T17:49:32;4.70;;;1.02;;
29120;SDS011;16191;49.548;8.658;2022-09-02T17:52:02;2.40;;;0.90;;
29120;SDS011;16191;49.548;8.658;2022-09-02T17:54:30;2.13;;;1.10;;
29120;SDS011;16191;49.548;8.658;2022-09-02T17:59:59;3.70;;;0.90;;